createdAt,value
2022-12-18T00:01:22.066Z,5.32
2022-12-18T00:03:49.743Z,5.72
2022-12-18T00:06:17.587Z,5.75
2022-12-18T00:08:45.821Z,5.20
2022-12-18T00:11:18.429Z,5.72
2022-12-18T00:13:46.143Z,5.20
2022-12-18T00:16:15.363Z,4.75
2022-12-18T00:18:42.905Z,4.85
2022-12-18T00:21:11.850Z,5.20
2022-12-18T00:23:40.517Z,7.53
2022-12-18T00:26:18.805Z,9.07
2022-12-18T00:28:46.744Z,9.48
2022-12-18T00:31:17.157Z,8.07
2022-12-18T00:33:44.039Z,7.15
2022-12-18T00:36:13.905Z,6.97
2022-12-18T00:38:41.549Z,6.55
2022-12-18T00:41:11.757Z,9.85
2022-12-18T00:43:40.032Z,7.53
2022-12-18T00:46:07.474Z,6.70
2022-12-18T00:48:34.328Z,7.20
2022-12-18T00:51:01.228Z,7.22
2022-12-18T00:53:28.125Z,6.95
2022-12-18T00:55:56.643Z,6.05
2022-12-18T00:58:23.502Z,5.65
2022-12-18T01:00:51.086Z,5.82
2022-12-18T01:03:17.954Z,5.80
2022-12-18T01:05:44.845Z,6.97
2022-12-18T01:08:12.238Z,5.82
2022-12-18T01:10:42.433Z,6.43
2022-12-18T01:13:09.702Z,4.93
2022-12-18T01:15:36.994Z,5.68
2022-12-18T01:18:06.839Z,6.13
2022-12-18T01:20:33.939Z,5.47
2022-12-18T01:23:00.750Z,5.32
2022-12-18T01:25:27.688Z,4.65
2022-12-18T01:27:54.561Z,4.47
2022-12-18T01:30:21.534Z,4.93
2022-12-18T01:32:51.330Z,4.72
2022-12-18T01:35:18.196Z,4.30
2022-12-18T01:37:45.005Z,4.80
2022-12-18T01:40:12.199Z,4.65
2022-12-18T01:42:40.028Z,4.75
2022-12-18T01:45:24.443Z,6.20
2022-12-18T01:47:54.797Z,5.40
2022-12-18T01:50:36.938Z,6.22
2022-12-18T01:53:08.420Z,6.45
2022-12-18T01:55:47.645Z,7.00
2022-12-18T01:58:15.077Z,6.97
2022-12-18T02:00:42.360Z,7.80
2022-12-18T02:03:09.427Z,6.80
2022-12-18T02:05:59.518Z,7.13
2022-12-18T02:09:12.674Z,7.35
2022-12-18T02:11:45.542Z,6.85
2022-12-18T02:14:15.777Z,7.57
2022-12-18T02:16:57.612Z,6.55
2022-12-18T02:19:45.746Z,8.35
2022-12-18T02:22:47.527Z,7.03
2022-12-18T02:25:29.321Z,6.18
2022-12-18T02:28:00.382Z,7.30
2022-12-18T02:30:35.040Z,5.85
2022-12-18T02:33:04.934Z,7.70
2022-12-18T02:35:34.581Z,7.03
2022-12-18T02:38:04.164Z,6.65
2022-12-18T02:40:34.648Z,5.97
2022-12-18T02:43:12.881Z,7.20
2022-12-18T02:45:56.025Z,7.38
2022-12-18T02:48:31.417Z,7.18
2022-12-18T02:51:11.957Z,7.53
2022-12-18T02:53:46.037Z,7.50
2022-12-18T02:56:28.754Z,8.00
2022-12-18T02:59:01.331Z,7.35
2022-12-18T03:02:02.141Z,7.50
2022-12-18T03:04:40.722Z,7.43
2022-12-18T03:07:16.558Z,8.75
2022-12-18T03:09:48.819Z,8.32
2022-12-18T03:12:25.983Z,8.23
2022-12-18T03:15:00.325Z,8.13
2022-12-18T03:17:30.606Z,7.90
2022-12-18T03:20:03.151Z,8.02
2022-12-18T03:22:34.352Z,8.45
2022-12-18T03:25:05.338Z,9.52
2022-12-18T03:27:34.435Z,8.52
2022-12-18T03:30:12.423Z,8.43
2022-12-18T03:33:01.598Z,8.25
2022-12-18T03:35:38.413Z,9.82
2022-12-18T03:38:06.216Z,8.88
2022-12-18T03:40:50.042Z,8.85
2022-12-18T03:43:36.059Z,8.38
2022-12-18T03:46:16.444Z,9.18
2022-12-18T03:48:54.800Z,9.82
2022-12-18T03:51:41.909Z,9.07
2022-12-18T03:54:10.075Z,8.95
2022-12-18T03:56:48.326Z,10.88
2022-12-18T03:59:17.060Z,11.13
2022-12-18T04:01:48.640Z,9.77
2022-12-18T04:04:17.558Z,9.32
2022-12-18T04:06:47.856Z,8.77
2022-12-18T04:09:15.729Z,8.38
2022-12-18T04:11:47.764Z,8.02
2022-12-18T04:14:18.255Z,7.05
2022-12-18T04:16:46.598Z,7.20
2022-12-18T04:19:16.521Z,6.22
2022-12-18T04:21:44.997Z,8.05
2022-12-18T04:24:14.139Z,7.65
2022-12-18T04:26:49.240Z,8.27
2022-12-18T04:29:24.154Z,6.65
2022-12-18T04:31:51.309Z,5.90
2022-12-18T04:34:18.182Z,6.63
2022-12-18T04:36:50.158Z,7.38
2022-12-18T04:39:19.082Z,8.25
2022-12-18T04:41:46.814Z,7.45
2022-12-18T04:44:14.439Z,6.97
2022-12-18T04:46:41.435Z,6.70
2022-12-18T04:49:08.523Z,6.25
2022-12-18T04:51:35.374Z,6.22
2022-12-18T04:54:02.386Z,7.35
2022-12-18T04:56:29.156Z,6.90
2022-12-18T04:58:55.949Z,7.47
2022-12-18T05:01:23.033Z,6.68
2022-12-18T05:03:50.120Z,7.03
2022-12-18T05:06:16.981Z,5.60
2022-12-18T05:08:43.809Z,5.78
2022-12-18T05:11:13.238Z,6.57
2022-12-18T05:13:40.371Z,6.00
2022-12-18T05:16:08.060Z,6.45
2022-12-18T05:18:35.561Z,6.63
2022-12-18T05:21:02.531Z,7.22
2022-12-18T05:23:29.770Z,7.78
2022-12-18T05:26:02.130Z,7.22
2022-12-18T05:28:30.621Z,6.88
2022-12-18T05:30:59.850Z,7.10
2022-12-18T05:33:28.405Z,7.75
2022-12-18T05:35:57.692Z,8.75
2022-12-18T05:38:25.790Z,8.23
2022-12-18T05:40:53.794Z,7.50
2022-12-18T05:43:24.601Z,7.55
2022-12-18T05:45:52.239Z,9.25
2022-12-18T05:48:19.257Z,7.47
2022-12-18T05:50:47.739Z,8.73
2022-12-18T05:53:17.046Z,7.65
2022-12-18T05:55:44.869Z,7.55
2022-12-18T05:58:13.238Z,7.50
2022-12-18T06:00:43.697Z,7.85
2022-12-18T06:03:12.692Z,7.55
2022-12-18T06:05:41.935Z,6.53
2022-12-18T06:08:09.393Z,7.15
2022-12-18T06:10:36.545Z,7.03
2022-12-18T06:13:04.030Z,7.97
2022-12-18T06:15:31.001Z,7.85
2022-12-18T06:17:57.823Z,8.60
2022-12-18T06:20:29.096Z,7.85
2022-12-18T20:21:57.536Z,17.60
2022-12-18T20:24:24.471Z,17.33
2022-12-18T20:26:51.612Z,16.95
2022-12-18T20:29:18.506Z,16.95
2022-12-18T20:31:45.427Z,18.83
2022-12-18T20:34:12.330Z,17.50
2022-12-18T20:36:39.896Z,17.10
2022-12-18T20:39:08.945Z,15.40
2022-12-18T20:41:37.965Z,17.00
2022-12-18T20:44:20.074Z,18.98
2022-12-18T20:46:50.577Z,16.00
2022-12-18T20:49:17.430Z,17.98
2022-12-18T20:51:44.343Z,17.35
2022-12-18T20:54:12.068Z,16.40
2022-12-18T20:56:39.046Z,15.23
2022-12-18T20:59:05.897Z,15.57
2022-12-18T21:01:32.844Z,16.05
2022-12-18T21:04:00.677Z,16.13
2022-12-18T21:06:27.620Z,17.70
2022-12-18T21:08:54.477Z,19.00
2022-12-18T21:11:39.796Z,17.33
2022-12-18T21:14:11.839Z,19.38
2022-12-18T21:16:40.171Z,17.45
2022-12-18T21:19:07.286Z,16.50
2022-12-18T21:21:36.529Z,18.63
2022-12-18T21:24:06.894Z,22.80
2022-12-18T21:26:33.913Z,24.55
2022-12-18T21:29:06.281Z,27.15
2022-12-18T21:31:35.481Z,21.63
2022-12-18T21:34:04.118Z,21.80
2022-12-18T21:36:32.058Z,23.02
2022-12-18T21:38:59.978Z,16.98
2022-12-18T21:41:46.918Z,18.90
2022-12-18T21:44:15.934Z,19.45
2022-12-18T21:46:52.953Z,19.30
2022-12-18T21:49:23.349Z,18.35
2022-12-18T21:51:55.327Z,18.13
2022-12-18T21:54:23.081Z,20.17
2022-12-18T21:56:59.469Z,20.13
